Time;durP1;ratioP1;P1;durP2;ratioP2;P2;SDS_P1;SDS_P2;PMS_P1;PMS_P2;Temp;Humidity;BMP_temperature;BMP_pressure;BME280_temperature;BME280_humidity;BME280_pressure;Samples;Min_cycle;Max_cycle;Signal;HPM_P1;HPM_P2
2022/03/09 00:02:10;;;;;;;8.10;4.45;;;;;;;;;;6095051;23;20052;-84
2022/03/09 00:04:36;;;;;;;9.68;5.45;;;;;;;;;;6071248;23;20384;-84
2022/03/09 00:07:02;;;;;;;8.48;4.70;;;;;;;;;;6071146;23;20022;-84
2022/03/09 00:09:28;;;;;;;8.38;4.75;;;;;;;;;;6070983;23;20014;-85
2022/03/09 00:11:54;;;;;;;8.77;5.07;;;;;;;;;;6095017;23;20269;-84
2022/03/09 00:14:20;;;;;;;8.50;4.85;;;;;;;;;;6094985;23;20243;-85
2022/03/09 00:16:46;;;;;;;8.38;4.88;;;;;;;;;;6095060;23;20014;-84
2022/03/09 00:19:12;;;;;;;8.70;4.95;;;;;;;;;;6094754;23;20088;-84
2022/03/09 00:21:38;;;;;;;8.80;4.95;;;;;;;;;;6070996;23;20497;-84
2022/03/09 00:24:05;;;;;;;10.38;4.88;;;;;;;;;;6094799;23;20049;-84
2022/03/09 00:26:31;;;;;;;7.82;4.70;;;;;;;;;;6094805;23;20108;-84
2022/03/09 00:28:57;;;;;;;9.25;5.07;;;;;;;;;;6070828;23;20025;-84
2022/03/09 00:31:23;;;;;;;9.07;5.72;;;;;;;;;;6065902;23;20018;-85
2022/03/09 00:33:49;;;;;;;9.52;5.28;;;;;;;;;;6066311;23;20010;-84
2022/03/09 00:36:15;;;;;;;9.73;5.22;;;;;;;;;;6066119;23;20352;-84
2022/03/09 00:38:41;;;;;;;9.35;4.82;;;;;;;;;;6066400;23;20445;-84
2022/03/09 00:41:07;;;;;;;8.98;5.10;;;;;;;;;;6065956;23;20369;-85
2022/03/09 00:43:33;;;;;;;9.15;5.13;;;;;;;;;;6065889;23;20021;-85
2022/03/09 00:45:59;;;;;;;10.82;5.30;;;;;;;;;;6065993;23;20014;-84
2022/03/09 00:48:25;;;;;;;8.73;5.03;;;;;;;;;;6065991;23;20014;-85
2022/03/09 00:50:51;;;;;;;9.15;5.22;;;;;;;;;;6065977;23;20022;-85
2022/03/09 00:53:17;;;;;;;9.35;5.20;;;;;;;;;;6065951;23;20015;-85
2022/03/09 00:55:43;;;;;;;9.65;5.45;;;;;;;;;;6065938;23;20011;-84
2022/03/09 00:58:09;;;;;;;8.82;5.53;;;;;;;;;;6065797;23;20078;-84
2022/03/09 01:00:35;;;;;;;10.52;5.75;;;;;;;;;;6065767;23;20089;-84
2022/03/09 01:03:01;;;;;;;9.43;5.22;;;;;;;;;;6065750;23;20050;-84
2022/03/09 01:05:27;;;;;;;8.05;4.70;;;;;;;;;;6065910;23;20042;-84
2022/03/09 01:07:53;;;;;;;10.15;6.28;;;;;;;;;;6065852;23;20021;-84
2022/03/09 01:10:19;;;;;;;8.82;5.22;;;;;;;;;;6065751;23;20019;-84
2022/03/09 01:12:48;;;;;;;10.85;5.65;;;;;;;;;;6065876;23;20341;-84
2022/03/09 01:15:14;;;;;;;9.48;5.40;;;;;;;;;;6065768;23;20375;-84
2022/03/09 01:17:40;;;;;;;9.25;4.97;;;;;;;;;;6065785;23;20584;-84
2022/03/09 01:20:06;;;;;;;9.63;5.47;;;;;;;;;;6065724;23;20272;-85
2022/03/09 01:22:32;;;;;;;9.18;5.50;;;;;;;;;;6066037;23;20018;-84
2022/03/09 01:24:58;;;;;;;9.27;5.85;;;;;;;;;;6065839;23;20457;-84
2022/03/09 01:27:24;;;;;;;7.82;5.13;;;;;;;;;;6065778;23;20026;-84
2022/03/09 01:29:50;;;;;;;9.07;5.55;;;;;;;;;;6070261;23;20018;-84
2022/03/09 01:32:16;;;;;;;10.85;6.07;;;;;;;;;;6094609;23;20025;-84
2022/03/09 01:34:42;;;;;;;9.65;5.82;;;;;;;;;;6094792;23;20170;-84
2022/03/09 01:37:08;;;;;;;9.20;5.85;;;;;;;;;;6094670;23;20655;-85
2022/03/09 01:39:34;;;;;;;11.38;6.18;;;;;;;;;;6094653;23;20014;-84
2022/03/09 01:42:00;;;;;;;10.27;6.15;;;;;;;;;;6094409;23;20025;-84
2022/03/09 01:44:26;;;;;;;9.40;5.60;;;;;;;;;;6094558;23;20531;-84
2022/03/09 01:46:53;;;;;;;11.20;6.25;;;;;;;;;;6094914;23;20093;-84
2022/03/09 01:49:20;;;;;;;10.65;6.75;;;;;;;;;;6094629;23;20507;-84
2022/03/09 01:51:47;;;;;;;9.15;5.63;;;;;;;;;;6094454;23;20006;-84
2022/03/09 01:54:13;;;;;;;11.25;6.60;;;;;;;;;;6094482;23;20052;-84
2022/03/09 01:56:39;;;;;;;10.88;6.53;;;;;;;;;;6094384;23;20092;-84
2022/03/09 01:59:07;;;;;;;11.65;6.60;;;;;;;;;;6094085;23;20010;-84
2022/03/09 02:01:33;;;;;;;9.98;6.10;;;;;;;;;;6094437;23;20452;-84
2022/03/09 02:03:59;;;;;;;10.57;5.85;;;;;;;;;;6094455;23;20108;-84
2022/03/09 02:06:25;;;;;;;11.68;6.47;;;;;;;;;;6094327;23;20093;-84
2022/03/09 02:11:37;;;;;;;9.85;6.03;;;;;;;;;;6094564;23;20026;-84
2022/03/09 02:14:03;;;;;;;12.48;6.40;;;;;;;;;;6095093;23;20010;-84
2022/03/09 02:16:29;;;;;;;11.85;6.75;;;;;;;;;;6096188;23;20407;-84
2022/03/09 02:18:55;;;;;;;9.90;5.80;;;;;;;;;;6096215;23;20045;-84
2022/03/09 02:21:23;;;;;;;11.27;5.85;;;;;;;;;;6095996;23;20045;-84
2022/03/09 02:23:50;;;;;;;10.48;6.45;;;;;;;;;;6096018;23;20397;-84
2022/03/09 02:26:16;;;;;;;11.73;6.70;;;;;;;;;;6096491;23;20344;-84
2022/03/09 02:28:46;;;;;;;13.63;6.78;;;;;;;;;;6095914;23;20014;-84
2022/03/09 02:31:12;;;;;;;11.82;6.63;;;;;;;;;;6095737;23;20021;-84
2022/03/09 02:33:38;;;;;;;11.18;6.28;;;;;;;;;;6096348;23;20025;-84
2022/03/09 02:36:04;;;;;;;11.32;6.72;;;;;;;;;;6095772;23;20014;-84
2022/03/09 02:38:31;;;;;;;12.15;6.85;;;;;;;;;;6095876;23;20348;-85
2022/03/09 02:40:57;;;;;;;13.27;6.78;;;;;;;;;;6095867;23;20025;-84
2022/03/09 02:43:23;;;;;;;12.43;7.72;;;;;;;;;;6095796;23;20025;-84
2022/03/09 02:45:49;;;;;;;13.75;7.95;;;;;;;;;;6095879;23;20024;-84
2022/03/09 02:48:15;;;;;;;12.10;7.22;;;;;;;;;;6095888;23;20064;-85
2022/03/09 02:50:41;;;;;;;11.25;6.75;;;;;;;;;;6095683;23;20018;-85
2022/03/09 02:53:07;;;;;;;11.10;6.80;;;;;;;;;;6095535;23;20296;-85
2022/03/09 02:55:33;;;;;;;12.65;7.43;;;;;;;;;;6095819;23;20049;-85
2022/03/09 02:57:59;;;;;;;10.82;6.85;;;;;;;;;;6095713;23;20452;-84
2022/03/09 03:00:25;;;;;;;11.43;7.65;;;;;;;;;;6095607;23;20013;-84
2022/03/09 03:02:51;;;;;;;12.93;7.50;;;;;;;;;;6095696;23;20390;-84
2022/03/09 03:05:17;;;;;;;13.40;7.35;;;;;;;;;;6095743;23;20408;-85
2022/03/09 03:07:43;;;;;;;11.15;6.80;;;;;;;;;;6095607;23;20022;-84
2022/03/09 03:10:09;;;;;;;10.90;6.93;;;;;;;;;;6095380;23;20093;-84
2022/03/09 03:12:35;;;;;;;12.40;7.80;;;;;;;;;;6095508;23;20042;-84
2022/03/09 03:15:04;;;;;;;13.73;8.02;;;;;;;;;;6095508;23;20448;-84
2022/03/09 03:17:30;;;;;;;14.45;7.90;;;;;;;;;;6095784;23;20521;-84
2022/03/09 03:19:55;;;;;;;12.77;8.27;;;;;;;;;;6095149;23;20053;-84
2022/03/09 03:22:21;;;;;;;12.45;7.68;;;;;;;;;;6095484;23;20029;-84
2022/03/09 03:24:47;;;;;;;12.70;7.85;;;;;;;;;;6095122;23;20477;-84
2022/03/09 03:27:13;;;;;;;13.05;7.80;;;;;;;;;;6095443;23;20014;-84
2022/03/09 03:29:39;;;;;;;13.02;8.13;;;;;;;;;;6094853;23;20021;-83
2022/03/09 03:32:06;;;;;;;14.57;8.32;;;;;;;;;;6095369;23;20037;-84
2022/03/09 03:34:32;;;;;;;14.60;8.32;;;;;;;;;;6095240;23;20069;-84
2022/03/09 03:36:58;;;;;;;14.63;8.27;;;;;;;;;;6095396;23;20010;-84
2022/03/09 03:39:24;;;;;;;14.43;8.35;;;;;;;;;;6095273;23;20073;-84
2022/03/09 03:41:50;;;;;;;12.35;7.93;;;;;;;;;;6095197;23;20018;-84
2022/03/09 03:44:16;;;;;;;13.15;8.15;;;;;;;;;;6095230;23;20018;-84
2022/03/09 03:46:42;;;;;;;12.90;8.25;;;;;;;;;;6095199;23;20028;-84
2022/03/09 03:49:08;;;;;;;14.55;8.68;;;;;;;;;;6095104;23;20025;-83
2022/03/09 03:51:34;;;;;;;15.32;9.32;;;;;;;;;;6071369;23;20014;-83
2022/03/09 03:54:00;;;;;;;14.13;8.18;;;;;;;;;;6095076;23;20016;-84
2022/03/09 03:56:26;;;;;;;12.35;8.02;;;;;;;;;;6095093;23;20093;-84
2022/03/09 03:58:52;;;;;;;15.43;9.23;;;;;;;;;;6094606;23;20010;-84
2022/03/09 04:01:18;;;;;;;14.38;8.23;;;;;;;;;;6095038;23;20272;-83
2022/03/09 04:03:44;;;;;;;14.52;8.55;;;;;;;;;;6094827;23;20076;-83
2022/03/09 04:06:10;;;;;;;13.68;8.57;;;;;;;;;;6095041;23;20010;-83
2022/03/09 04:08:36;;;;;;;13.85;8.35;;;;;;;;;;6094968;23;20333;-83
2022/03/09 04:11:02;;;;;;;14.43;8.50;;;;;;;;;;6094793;23;20018;-83
2022/03/09 04:13:28;;;;;;;13.07;8.32;;;;;;;;;;6094965;23;20017;-83
2022/03/09 04:15:54;;;;;;;13.85;8.38;;;;;;;;;;6095095;23;20081;-83
2022/03/09 04:18:20;;;;;;;12.73;8.23;;;;;;;;;;6094972;23;20068;-83
2022/03/09 04:20:46;;;;;;;14.48;8.05;;;;;;;;;;6094977;23;20014;-83
2022/03/09 04:23:12;;;;;;;14.25;8.35;;;;;;;;;;6094870;23;20021;-83
2022/03/09 04:25:39;;;;;;;14.32;8.15;;;;;;;;;;6094767;23;20061;-84
2022/03/09 04:28:05;;;;;;;13.18;8.30;;;;;;;;;;6095010;23;20025;-83
2022/03/09 04:30:32;;;;;;;13.48;8.38;;;;;;;;;;6094321;23;20018;-83
2022/03/09 04:32:58;;;;;;;12.98;8.15;;;;;;;;;;6070856;23;20017;-83
2022/03/09 04:35:24;;;;;;;12.55;7.65;;;;;;;;;;6070870;23;20014;-83
2022/03/09 04:37:50;;;;;;;13.43;8.27;;;;;;;;;;6070662;23;20045;-84
2022/03/09 04:40:19;;;;;;;12.75;8.10;;;;;;;;;;6095109;23;20391;-83
2022/03/09 04:42:45;;;;;;;14.35;8.55;;;;;;;;;;6070674;23;20013;-83
2022/03/09 04:45:11;;;;;;;14.90;8.75;;;;;;;;;;6094750;23;20049;-84
2022/03/09 04:47:37;;;;;;;14.65;8.52;;;;;;;;;;6094902;23;20080;-83
2022/03/09 04:50:03;;;;;;;11.82;7.60;;;;;;;;;;6094654;23;20029;-83
2022/03/09 04:52:29;;;;;;;13.98;8.50;;;;;;;;;;6094685;23;20016;-83
2022/03/09 04:54:55;;;;;;;14.23;9.10;;;;;;;;;;6094699;23;20085;-83
2022/03/09 04:57:21;;;;;;;12.57;8.13;;;;;;;;;;6094609;23;20018;-84
2022/03/09 04:59:47;;;;;;;14.25;8.50;;;;;;;;;;6094761;23;20022;-84
2022/03/09 05:02:13;;;;;;;14.57;8.80;;;;;;;;;;6094572;23;20025;-84
2022/03/09 05:04:39;;;;;;;16.45;9.18;;;;;;;;;;6094680;23;20025;-83
2022/03/09 05:07:05;;;;;;;13.25;8.25;;;;;;;;;;6070732;23;20014;-84
2022/03/09 05:09:31;;;;;;;12.57;7.95;;;;;;;;;;6070639;23;20022;-83
2022/03/09 05:11:57;;;;;;;13.23;8.90;;;;;;;;;;6070600;23;20359;-83
2022/03/09 05:14:23;;;;;;;14.05;9.18;;;;;;;;;;6094693;23;20010;-83
2022/03/09 05:16:49;;;;;;;18.88;9.43;;;;;;;;;;6094632;23;20014;-83
2022/03/09 05:19:15;;;;;;;14.32;9.10;;;;;;;;;;6094418;23;20535;-83
2022/03/09 05:21:41;;;;;;;15.98;9.73;;;;;;;;;;6094265;23;20026;-83
2022/03/09 05:24:07;;;;;;;13.43;8.73;;;;;;;;;;6094608;23;20017;-83
2022/03/09 05:26:33;;;;;;;14.15;8.88;;;;;;;;;;6070606;23;20014;-83
2022/03/09 05:28:59;;;;;;;13.63;8.10;;;;;;;;;;6094545;23;20018;-83
2022/03/09 05:31:25;;;;;;;14.50;9.38;;;;;;;;;;6093851;23;20014;-83
2022/03/09 05:33:51;;;;;;;13.35;8.32;;;;;;;;;;6094788;23;20392;-83
2022/03/09 05:36:17;;;;;;;12.98;7.85;;;;;;;;;;6070517;23;20365;-83
2022/03/09 05:38:43;;;;;;;14.30;8.98;;;;;;;;;;6070880;23;20073;-83
2022/03/09 05:41:09;;;;;;;16.58;9.48;;;;;;;;;;6094350;23;20014;-83
2022/03/09 05:43:35;;;;;;;14.65;9.05;;;;;;;;;;6094412;23;20323;-83
2022/03/09 05:46:01;;;;;;;14.95;8.90;;;;;;;;;;6094619;23;20419;-83
2022/03/09 05:48:27;;;;;;;14.10;8.65;;;;;;;;;;6094702;23;20360;-83
2022/03/09 05:50:53;;;;;;;15.85;9.70;;;;;;;;;;6096262;23;20018;-83
2022/03/09 05:53:19;;;;;;;13.75;8.95;;;;;;;;;;6096358;23;20467;-83
2022/03/09 05:55:45;;;;;;;15.48;9.20;;;;;;;;;;6072361;23;20054;-83
2022/03/09 05:58:11;;;;;;;14.55;9.40;;;;;;;;;;6096342;23;20026;-83
2022/03/09 06:00:37;;;;;;;17.88;9.82;;;;;;;;;;6096329;23;20479;-84
2022/03/09 06:03:03;;;;;;;15.32;9.00;;;;;;;;;;6096238;23;20018;-83
2022/03/09 06:05:29;;;;;;;15.73;9.50;;;;;;;;;;6096285;23;20101;-84
2022/03/09 06:07:55;;;;;;;16.02;9.65;;;;;;;;;;6096288;23;20022;-84
2022/03/09 06:10:21;;;;;;;15.60;9.43;;;;;;;;;;6072218;23;20077;-84
2022/03/09 06:12:47;;;;;;;14.50;9.32;;;;;;;;;;6072244;23;20020;-83
2022/03/09 06:15:13;;;;;;;17.35;9.52;;;;;;;;;;6072475;23;20017;-84
2022/03/09 06:17:46;;;;;;;14.77;9.60;;;;;;;;;;6095724;23;20352;-83
2022/03/09 06:20:12;;;;;;;15.35;9.35;;;;;;;;;;6072004;23;20017;-83
2022/03/09 06:22:38;;;;;;;15.52;9.63;;;;;;;;;;6095549;23;20032;-83
2022/03/09 06:25:04;;;;;;;14.35;8.55;;;;;;;;;;6071720;23;20045;-84
2022/03/09 06:27:38;;;;;;;13.40;9.48;;;;;;;;;;6095342;23;20515;-83
2022/03/09 06:30:05;;;;;;;13.90;8.95;;;;;;;;;;6094388;23;20026;-83
2022/03/09 06:32:30;;;;;;;16.33;10.18;;;;;;;;;;6095532;23;20104;-83
2022/03/09 06:34:56;;;;;;;15.88;9.55;;;;;;;;;;6094735;23;20013;-83
2022/03/09 06:37:22;;;;;;;14.85;9.38;;;;;;;;;;6072269;23;20472;-84
2022/03/09 06:39:48;;;;;;;16.13;9.57;;;;;;;;;;6095835;23;20045;-83
2022/03/09 06:42:14;;;;;;;15.43;10.10;;;;;;;;;;6096171;23;20029;-83
2022/03/09 06:44:40;;;;;;;16.65;9.80;;;;;;;;;;6095832;23;20018;-83
2022/03/09 06:47:06;;;;;;;17.73;9.77;;;;;;;;;;6071615;23;20013;-83
2022/03/09 06:49:32;;;;;;;16.20;9.77;;;;;;;;;;6095183;23;20018;-83
2022/03/09 06:51:58;;;;;;;17.08;10.27;;;;;;;;;;6095409;23;20093;-83
2022/03/09 06:54:24;;;;;;;15.43;9.25;;;;;;;;;;6095649;23;20025;-83
2022/03/09 06:56:52;;;;;;;16.40;10.45;;;;;;;;;;6071416;23;20021;-83
2022/03/09 06:59:18;;;;;;;15.75;10.65;;;;;;;;;;6094890;23;20018;-83
2022/03/09 07:01:44;;;;;;;17.05;9.98;;;;;;;;;;6095212;23;20068;-83
2022/03/09 07:04:10;;;;;;;17.77;10.40;;;;;;;;;;6095440;23;20204;-83
2022/03/09 07:06:35;;;;;;;14.82;9.07;;;;;;;;;;6095457;23;20025;-83
2022/03/09 07:09:01;;;;;;;16.77;9.95;;;;;;;;;;6095197;23;20106;-83
2022/03/09 07:11:27;;;;;;;16.50;10.02;;;;;;;;;;6095490;23;20186;-83
2022/03/09 07:13:53;;;;;;;16.55;9.95;;;;;;;;;;6071380;23;20006;-83
2022/03/09 07:16:19;;;;;;;15.48;10.10;;;;;;;;;;6095548;23;20018;-83
2022/03/09 07:18:45;;;;;;;17.52;9.80;;;;;;;;;;6095496;23;20013;-83
2022/03/09 07:21:13;;;;;;;15.35;9.80;;;;;;;;;;6070260;23;20018;-83
2022/03/09 07:23:39;;;;;;;15.98;9.77;;;;;;;;;;6071421;23;20456;-83
2022/03/09 07:26:05;;;;;;;17.35;9.75;;;;;;;;;;6071130;23;20364;-83
2022/03/09 07:28:31;;;;;;;15.43;10.05;;;;;;;;;;6094972;23;20049;-83
2022/03/09 07:30:57;;;;;;;14.95;9.68;;;;;;;;;;6065958;23;20014;-83
2022/03/09 07:33:23;;;;;;;15.98;10.13;;;;;;;;;;6065761;23;20018;-83
2022/03/09 07:35:49;;;;;;;17.35;9.98;;;;;;;;;;6066086;23;20093;-83
2022/03/09 07:38:15;;;;;;;13.82;9.27;;;;;;;;;;6065746;23;20108;-83
2022/03/09 07:40:42;;;;;;;16.70;10.50;;;;;;;;;;6065981;23;20022;-83
2022/03/09 07:43:08;;;;;;;14.38;8.48;;;;;;;;;;6065935;23;20022;-86
2022/03/09 07:45:34;;;;;;;15.68;9.15;;;;;;;;;;6066275;23;20015;-83
2022/03/09 07:48:00;;;;;;;14.85;8.55;;;;;;;;;;6065723;23;20018;-83
2022/03/09 07:50:27;;;;;;;13.50;9.10;;;;;;;;;;6065583;23;20089;-83
2022/03/09 07:52:53;;;;;;;14.25;9.63;;;;;;;;;;6065533;23;20046;-84
2022/03/09 07:55:19;;;;;;;13.27;9.38;;;;;;;;;;6066022;23;20515;-84
2022/03/09 07:57:45;;;;;;;16.38;8.88;;;;;;;;;;6066141;23;20014;-84
2022/03/09 08:00:11;;;;;;;14.45;9.10;;;;;;;;;;6065291;23;20015;-83
2022/03/09 08:02:37;;;;;;;17.77;9.52;;;;;;;;;;6065197;23;20093;-85
2022/03/09 08:05:04;;;;;;;13.77;8.38;;;;;;;;;;6065587;23;20636;-85
2022/03/09 08:07:30;;;;;;;14.00;9.50;;;;;;;;;;6066166;23;20263;-84
2022/03/09 08:09:57;;;;;;;12.90;8.77;;;;;;;;;;6066134;23;20445;-84
2022/03/09 08:12:23;;;;;;;13.15;8.70;;;;;;;;;;6066357;23;20015;-85
2022/03/09 08:14:49;;;;;;;12.95;8.70;;;;;;;;;;6066497;23;20010;-84
2022/03/09 08:17:15;;;;;;;15.18;8.82;;;;;;;;;;6066321;23;20089;-85
2022/03/09 08:19:41;;;;;;;14.48;8.98;;;;;;;;;;6066281;23;20029;-86
2022/03/09 08:22:07;;;;;;;14.63;8.73;;;;;;;;;;6064881;23;20440;-84
2022/03/09 08:24:33;;;;;;;14.10;8.45;;;;;;;;;;6065991;23;20019;-86
2022/03/09 08:27:00;;;;;;;12.80;8.40;;;;;;;;;;6066234;23;20350;-85
2022/03/09 08:29:26;;;;;;;14.38;8.70;;;;;;;;;;6068254;23;20049;-84
2022/03/09 08:31:52;;;;;;;14.60;8.60;;;;;;;;;;6095990;23;20081;-85
2022/03/09 08:34:18;;;;;;;14.35;9.15;;;;;;;;;;6096018;23;20014;-85
2022/03/09 08:36:44;;;;;;;14.23;9.45;;;;;;;;;;6095472;23;20352;-85
2022/03/09 08:39:10;;;;;;;13.02;8.20;;;;;;;;;;6095411;23;20014;-85
2022/03/09 08:41:36;;;;;;;12.98;8.57;;;;;;;;;;6095312;23;20010;-84
2022/03/09 08:44:02;;;;;;;14.13;8.27;;;;;;;;;;6071440;23;20014;-85
2022/03/09 08:46:28;;;;;;;13.90;8.52;;;;;;;;;;6071427;23;20014;-84
2022/03/09 08:48:54;;;;;;;13.13;7.93;;;;;;;;;;6095357;23;20348;-85
2022/03/09 08:51:21;;;;;;;14.25;9.18;;;;;;;;;;6095608;23;20014;-83
2022/03/09 08:53:47;;;;;;;11.93;8.05;;;;;;;;;;6095316;23;20024;-84
2022/03/09 08:56:13;;;;;;;12.60;8.02;;;;;;;;;;6095781;23;20010;-85
2022/03/09 08:58:39;;;;;;;15.05;8.90;;;;;;;;;;6096063;23;20014;-85
2022/03/09 09:01:06;;;;;;;14.32;8.20;;;;;;;;;;6095697;23;20018;-84
2022/03/09 09:03:32;;;;;;;12.85;7.93;;;;;;;;;;6094662;23;20014;-85
2022/03/09 09:05:58;;;;;;;12.85;8.10;;;;;;;;;;6094843;23;20018;-85
2022/03/09 09:08:24;;;;;;;15.23;8.40;;;;;;;;;;6095662;23;20359;-84
2022/03/09 09:10:50;;;;;;;14.48;8.73;;;;;;;;;;6095522;23;20113;-84
2022/03/09 09:13:16;;;;;;;12.68;8.07;;;;;;;;;;6094811;23;20021;-84
2022/03/09 09:15:42;;;;;;;11.85;7.65;;;;;;;;;;6095064;23;20018;-84
2022/03/09 09:18:09;;;;;;;17.00;8.50;;;;;;;;;;6095085;23;20069;-85
2022/03/09 09:20:35;;;;;;;13.30;8.27;;;;;;;;;;6094997;23;20524;-85
2022/03/09 09:23:02;;;;;;;13.55;7.90;;;;;;;;;;6095375;23;20022;-85
2022/03/09 09:25:28;;;;;;;11.73;7.65;;;;;;;;;;6096397;23;20404;-86
2022/03/09 09:27:55;;;;;;;12.88;8.27;;;;;;;;;;6096329;23;20021;-85
2022/03/09 09:30:22;;;;;;;12.50;7.55;;;;;;;;;;6097023;23;20108;-86
2022/03/09 09:32:49;;;;;;;14.40;7.80;;;;;;;;;;6096858;23;20242;-87
2022/03/09 09:35:16;;;;;;;11.27;7.60;;;;;;;;;;6073201;23;20085;-84
2022/03/09 09:37:43;;;;;;;12.13;7.15;;;;;;;;;;6096095;23;20022;-83
2022/03/09 09:40:10;;;;;;;12.10;7.90;;;;;;;;;;6096225;23;20014;-86
2022/03/09 09:42:37;;;;;;;10.88;7.45;;;;;;;;;;6096611;23;20089;-86
2022/03/09 09:45:03;;;;;;;12.35;7.35;;;;;;;;;;6096222;23;20021;-86
2022/03/09 09:47:31;;;;;;;12.25;7.82;;;;;;;;;;6096218;23;20010;-86
2022/03/09 09:49:57;;;;;;;11.63;7.45;;;;;;;;;;6096547;23;20021;-85
2022/03/09 09:52:27;;;;;;;12.88;7.82;;;;;;;;;;6072325;23;20430;-85
2022/03/09 09:54:54;;;;;;;13.55;7.70;;;;;;;;;;6096513;23;20045;-86
2022/03/09 09:57:20;;;;;;;11.27;8.00;;;;;;;;;;6096507;23;20098;-85
2022/03/09 09:59:46;;;;;;;12.02;7.90;;;;;;;;;;6072174;23;20025;-84
2022/03/09 10:02:12;;;;;;;11.93;8.68;;;;;;;;;;6095684;23;20017;-85
2022/03/09 10:04:39;;;;;;;12.18;7.78;;;;;;;;;;6096014;23;20014;-85
2022/03/09 10:07:05;;;;;;;11.20;7.63;;;;;;;;;;6096655;23;20025;-83
2022/03/09 10:09:35;;;;;;;12.95;8.35;;;;;;;;;;6096265;23;20105;-82
2022/03/09 10:12:01;;;;;;;12.38;8.23;;;;;;;;;;6096485;23;20021;-85
2022/03/09 10:14:43;;;;;;;12.20;8.10;;;;;;;;;;6072017;23;20014;-85
2022/03/09 10:17:11;;;;;;;12.25;8.25;;;;;;;;;;6096154;23;20222;-85
2022/03/09 10:19:38;;;;;;;13.77;8.60;;;;;;;;;;6072638;23;20077;-84
2022/03/09 10:22:23;;;;;;;12.88;8.05;;;;;;;;;;6096801;23;20018;-84
2022/03/09 10:24:56;;;;;;;13.40;8.73;;;;;;;;;;6096550;23;20045;-88
2022/03/09 10:27:35;;;;;;;12.73;7.80;;;;;;;;;;6072879;23;20459;-86
2022/03/09 10:30:02;;;;;;;12.27;8.35;;;;;;;;;;6096170;23;20304;-86
2022/03/09 10:32:48;;;;;;;12.32;8.55;;;;;;;;;;6072680;23;20014;-86
2022/03/09 10:35:14;;;;;;;11.85;8.35;;;;;;;;;;6095911;23;20351;-86
2022/03/09 10:37:41;;;;;;;10.77;8.05;;;;;;;;;;6072740;23;20014;-86
2022/03/09 10:40:12;;;;;;;12.77;8.23;;;;;;;;;;6071876;23;20511;-84
2022/03/09 10:42:38;;;;;;;13.70;8.43;;;;;;;;;;6094576;23;20353;-84
2022/03/09 10:45:07;;;;;;;12.13;8.80;;;;;;;;;;6096613;23;20445;-86
2022/03/09 10:47:39;;;;;;;11.52;8.40;;;;;;;;;;6072046;23;20404;-89
2022/03/09 10:50:11;;;;;;;13.10;8.40;;;;;;;;;;6071689;23;20021;-84
2022/03/09 10:52:48;;;;;;;11.80;8.32;;;;;;;;;;6096062;23;20024;-86
2022/03/09 10:55:31;;;;;;;11.40;7.95;;;;;;;;;;6096014;23;20093;-84
2022/03/09 10:58:10;;;;;;;14.35;9.00;;;;;;;;;;6095846;23;20018;-85
2022/03/09 11:00:37;;;;;;;12.75;8.40;;;;;;;;;;6096257;23;20367;-84
2022/03/09 11:03:07;;;;;;;12.20;8.25;;;;;;;;;;6095168;23;20014;-86
2022/03/09 11:05:34;;;;;;;12.02;8.60;;;;;;;;;;6096561;23;20018;-85
2022/03/09 11:08:02;;;;;;;13.00;9.15;;;;;;;;;;6095703;23;20619;-85
2022/03/09 11:10:29;;;;;;;12.20;8.30;;;;;;;;;;6071694;23;20084;-84
2022/03/09 11:12:56;;;;;;;14.10;8.90;;;;;;;;;;6098418;23;20021;-86
2022/03/09 11:15:23;;;;;;;13.65;8.90;;;;;;;;;;6073766;23;20444;-86
2022/03/09 11:17:49;;;;;;;12.15;8.52;;;;;;;;;;6096054;23;20010;-86
2022/03/09 11:20:15;;;;;;;11.35;8.23;;;;;;;;;;6070647;23;20092;-85
2022/03/09 11:22:42;;;;;;;12.93;8.70;;;;;;;;;;6071322;23;20021;-83
2022/03/09 11:25:08;;;;;;;11.50;8.45;;;;;;;;;;6094628;23;20014;-84
2022/03/09 11:27:35;;;;;;;10.63;7.88;;;;;;;;;;6095379;23;20014;-86
2022/03/09 11:30:20;;;;;;;13.55;9.20;;;;;;;;;;6095105;23;20426;-84
2022/03/09 11:32:46;;;;;;;12.40;8.30;;;;;;;;;;6094729;23;20121;-85
2022/03/09 11:35:32;;;;;;;11.52;8.52;;;;;;;;;;6094038;23;20010;-86
2022/03/09 11:37:58;;;;;;;11.77;8.63;;;;;;;;;;6095447;23;20235;-84
2022/03/09 11:40:24;;;;;;;12.13;8.75;;;;;;;;;;6095541;23;20089;-84
2022/03/09 11:42:50;;;;;;;12.48;8.55;;;;;;;;;;6095504;23;20018;-83
2022/03/09 11:45:22;;;;;;;12.63;8.93;;;;;;;;;;6095493;23;20017;-83
2022/03/09 11:48:00;;;;;;;12.52;9.07;;;;;;;;;;6094871;23;20399;-84
2022/03/09 11:50:27;;;;;;;12.50;8.68;;;;;;;;;;6071727;23;20021;-89
2022/03/09 11:52:54;;;;;;;10.82;8.77;;;;;;;;;;6094569;23;20014;-83
2022/03/09 11:55:20;;;;;;;11.23;8.82;;;;;;;;;;6095060;23;20365;-86
2022/03/09 11:57:46;;;;;;;12.32;9.02;;;;;;;;;;6071281;23;20018;-84
2022/03/09 12:00:13;;;;;;;13.95;9.65;;;;;;;;;;6071197;23;20066;-85
2022/03/09 12:02:40;;;;;;;12.15;8.98;;;;;;;;;;6095057;23;20049;-85
2022/03/09 12:05:07;;;;;;;10.95;8.63;;;;;;;;;;6071130;23;20100;-86
2022/03/09 12:07:34;;;;;;;12.43;8.68;;;;;;;;;;6095113;23;20092;-84
2022/03/09 12:10:00;;;;;;;13.45;8.95;;;;;;;;;;6094244;23;20072;-84
2022/03/09 12:12:27;;;;;;;13.52;9.10;;;;;;;;;;6094836;23;20467;-83
2022/03/09 12:14:59;;;;;;;13.18;10.15;;;;;;;;;;6095080;23;20010;-84
2022/03/09 12:17:39;;;;;;;14.38;8.82;;;;;;;;;;5086093;27;20757;-83
2022/03/09 12:20:18;;;;;;;11.30;8.55;;;;;;;;;;5064720;28;20040;-84
2022/03/09 12:22:56;;;;;;;12.88;8.82;;;;;;;;;;5065176;28;20055;-81
2022/03/09 12:25:35;;;;;;;12.65;9.00;;;;;;;;;;5075205;28;20413;-85
2022/03/09 12:28:19;;;;;;;13.88;9.63;;;;;;;;;;5044609;28;20087;-86
2022/03/09 12:30:47;;;;;;;13.13;9.18;;;;;;;;;;5061021;28;20577;-82
2022/03/09 12:33:20;;;;;;;11.90;8.55;;;;;;;;;;5050885;28;20412;-83
2022/03/09 12:35:47;;;;;;;12.13;8.60;;;;;;;;;;5063497;28;20137;-83
2022/03/09 12:38:14;;;;;;;12.35;8.73;;;;;;;;;;5066586;28;20041;-83
2022/03/09 12:40:40;;;;;;;13.07;8.52;;;;;;;;;;5047549;28;20055;-83
2022/03/09 12:43:06;;;;;;;14.05;9.10;;;;;;;;;;5074411;28;20037;-83
2022/03/09 12:45:51;;;;;;;13.63;8.88;;;;;;;;;;5054729;28;20044;-83
2022/03/09 12:48:20;;;;;;;13.05;8.73;;;;;;;;;;5047976;28;20511;-84
2022/03/09 12:50:47;;;;;;;13.00;8.90;;;;;;;;;;5059270;28;20068;-84
2022/03/09 12:53:18;;;;;;;12.43;9.07;;;;;;;;;;5053076;28;20048;-84
2022/03/09 12:55:44;;;;;;;11.73;8.65;;;;;;;;;;5067126;28;20061;-83
2022/03/09 12:58:10;;;;;;;12.18;9.18;;;;;;;;;;5060080;28;20044;-83
2022/03/09 13:00:36;;;;;;;11.88;9.00;;;;;;;;;;5049040;28;20040;-85
2022/03/09 13:03:02;;;;;;;11.60;8.55;;;;;;;;;;5072007;28;20480;-84
2022/03/09 13:05:29;;;;;;;12.60;8.63;;;;;;;;;;5056345;28;20045;-83
2022/03/09 13:07:56;;;;;;;12.48;8.70;;;;;;;;;;5064306;28;20089;-82
2022/03/09 13:10:24;;;;;;;13.30;9.00;;;;;;;;;;5076293;28;20049;-85
2022/03/09 13:13:00;;;;;;;12.85;9.23;;;;;;;;;;5052284;28;20048;-85
2022/03/09 13:15:35;;;;;;;12.15;8.15;;;;;;;;;;5066166;28;20428;-84
2022/03/09 13:18:01;;;;;;;13.02;9.20;;;;;;;;;;5046810;28;20049;-85
2022/03/09 13:20:27;;;;;;;12.40;8.90;;;;;;;;;;5054945;28;20377;-83
2022/03/09 13:22:53;;;;;;;13.02;8.82;;;;;;;;;;5074337;28;20028;-85
2022/03/09 13:25:19;;;;;;;12.65;8.65;;;;;;;;;;5072692;28;20568;-83
2022/03/09 13:27:45;;;;;;;11.40;7.90;;;;;;;;;;5065816;28;20032;-82
2022/03/09 13:30:12;;;;;;;12.50;9.10;;;;;;;;;;5074786;28;20055;-83
2022/03/09 13:32:39;;;;;;;11.57;8.15;;;;;;;;;;5043349;28;20107;-82
2022/03/09 13:35:05;;;;;;;11.50;8.23;;;;;;;;;;5044093;28;20082;-83
2022/03/09 13:37:32;;;;;;;11.35;8.13;;;;;;;;;;5058507;28;20055;-82
2022/03/09 13:40:00;;;;;;;12.20;8.93;;;;;;;;;;5054798;28;20041;-85
2022/03/09 13:42:37;;;;;;;11.98;8.90;;;;;;;;;;5056804;28;20064;-83
2022/03/09 13:45:14;;;;;;;11.35;8.27;;;;;;;;;;5054462;28;20041;-83
2022/03/09 13:47:51;;;;;;;12.35;8.00;;;;;;;;;;5070253;28;20533;-83
2022/03/09 13:50:18;;;;;;;12.43;8.63;;;;;;;;;;5063359;28;20111;-83
2022/03/09 13:52:45;;;;;;;12.43;8.55;;;;;;;;;;5056343;28;20032;-83
2022/03/09 13:55:18;;;;;;;14.90;8.48;;;;;;;;;;5055338;28;20045;-82
2022/03/09 13:57:44;;;;;;;13.07;8.38;;;;;;;;;;5073715;28;20041;-83
2022/03/09 14:00:22;;;;;;;11.68;8.32;;;;;;;;;;5059687;28;20036;-84
2022/03/09 14:02:48;;;;;;;11.65;8.07;;;;;;;;;;5059509;28;20389;-83
2022/03/09 14:05:30;;;;;;;11.45;8.32;;;;;;;;;;5060754;28;20052;-84
2022/03/09 14:07:57;;;;;;;13.30;8.70;;;;;;;;;;5071139;28;20032;-84
2022/03/09 14:10:26;;;;;;;12.88;8.75;;;;;;;;;;5061087;28;20040;-83
2022/03/09 14:12:52;;;;;;;12.68;8.95;;;;;;;;;;5060491;28;20563;-83
2022/03/09 14:15:18;;;;;;;13.23;9.35;;;;;;;;;;5072006;28;20044;-83
2022/03/09 14:17:44;;;;;;;12.13;9.02;;;;;;;;;;5053890;28;20054;-85
2022/03/09 14:20:12;;;;;;;12.52;8.70;;;;;;;;;;5053921;28;20428;-83
2022/03/09 14:22:48;;;;;;;11.95;8.45;;;;;;;;;;5040485;28;20099;-83
2022/03/09 14:25:15;;;;;;;12.50;9.13;;;;;;;;;;5058303;28;20528;-85
2022/03/09 14:27:41;;;;;;;12.93;9.05;;;;;;;;;;5059614;28;20035;-85
2022/03/09 14:30:09;;;;;;;12.63;9.07;;;;;;;;;;5063655;28;20036;-84
2022/03/09 14:32:35;;;;;;;12.77;9.15;;;;;;;;;;5057209;28;20072;-84
2022/03/09 14:35:01;;;;;;;13.68;10.00;;;;;;;;;;5074627;28;20072;-83